createdAt,value
2023-02-22T00:02:11.257Z,100092.38
2023-02-22T00:04:40.217Z,100095.05
2023-02-22T00:07:09.135Z,100095.70
2023-02-22T00:09:37.602Z,100095.04
2023-02-22T00:12:06.222Z,100098.05
2023-02-22T00:14:34.618Z,100100.70
2023-02-22T00:17:03.073Z,100096.90
2023-02-22T00:19:31.454Z,100101.14
2023-02-22T00:22:00.281Z,100101.30
2023-02-22T00:24:29.661Z,100099.17
2023-02-22T00:26:58.101Z,100094.38
2023-02-22T00:29:26.890Z,100096.45
2023-02-22T00:31:55.389Z,100098.18
2023-02-22T00:34:24.553Z,100100.25
2023-02-22T00:36:53.087Z,100104.53
2023-02-22T00:39:21.492Z,100105.89
2023-02-22T00:41:50.049Z,100108.91
2023-02-22T00:44:18.622Z,100118.33
2023-02-22T00:46:47.142Z,100125.88
2023-02-22T00:49:17.228Z,100130.02
2023-02-22T00:51:46.205Z,100132.06
2023-02-22T00:54:14.634Z,100129.35
2023-02-22T00:56:43.234Z,100128.06
2023-02-22T00:59:12.025Z,100126.40
2023-02-22T01:01:40.445Z,100124.13
2023-02-22T01:04:09.713Z,100124.73
2023-02-22T01:06:40.512Z,100122.27
2023-02-22T01:09:08.920Z,100128.53
2023-02-22T01:11:37.304Z,100129.52
2023-02-22T01:14:09.787Z,100130.15
2023-02-22T01:16:38.760Z,100127.14
2023-02-22T01:19:07.167Z,100131.34
2023-02-22T01:21:35.558Z,100137.37
2023-02-22T01:24:04.048Z,100133.43
2023-02-22T01:26:32.530Z,100137.02
2023-02-22T01:29:01.200Z,100133.30
2023-02-22T01:31:29.577Z,100133.78
2023-02-22T01:33:58.222Z,100137.89
2023-02-22T01:36:27.312Z,100135.20
2023-02-22T01:38:55.622Z,100138.23
2023-02-22T01:41:24.085Z,100137.30
2023-02-22T01:43:52.350Z,100142.47
2023-02-22T01:46:27.909Z,100144.23
2023-02-22T01:49:06.469Z,100142.91
2023-02-22T01:51:44.247Z,100145.52
2023-02-22T01:54:18.935Z,100147.80
2023-02-22T01:57:26.005Z,100142.14
2023-02-22T02:00:10.684Z,100146.79
2023-02-22T02:02:46.480Z,100157.02
2023-02-22T02:05:15.379Z,100157.48
2023-02-22T02:07:46.642Z,100158.80
2023-02-22T02:10:15.987Z,100161.77
2023-02-22T02:12:50.547Z,100161.06
2023-02-22T02:15:31.932Z,100162.14
2023-02-22T02:18:10.780Z,100162.83
2023-02-22T02:21:04.548Z,100168.32
2023-02-22T02:23:55.179Z,100171.63
2023-02-22T02:26:38.381Z,100180.05
2023-02-22T02:29:31.066Z,100186.44
2023-02-22T02:32:18.059Z,100184.13
2023-02-22T02:35:12.658Z,100183.61
2023-02-22T02:37:50.987Z,100181.48
2023-02-22T02:40:41.906Z,100192.17
2023-02-22T02:43:36.988Z,100194.05
2023-02-22T02:46:35.461Z,100194.77
2023-02-22T02:49:14.005Z,100203.35
2023-02-22T02:51:50.405Z,100206.53
2023-02-22T02:54:19.901Z,100210.12
2023-02-22T02:56:48.617Z,100208.84
2023-02-22T02:59:37.451Z,100209.55
2023-02-22T03:02:36.103Z,100216.34
2023-02-22T03:05:43.910Z,100216.48
2023-02-22T03:08:27.966Z,100223.19
2023-02-22T03:11:18.770Z,100226.11
2023-02-22T03:13:50.891Z,100224.89
2023-02-22T03:16:30.278Z,100224.92
2023-02-22T03:19:20.719Z,100229.23
2023-02-22T03:22:05.780Z,100234.78
2023-02-22T03:25:07.414Z,100234.22
2023-02-22T03:27:53.501Z,100233.38
2023-02-22T03:30:28.290Z,100232.55
2023-02-22T03:33:09.283Z,100239.23
2023-02-22T03:35:45.379Z,100238.72
2023-02-22T03:38:17.115Z,100237.11
2023-02-22T03:40:51.123Z,100237.41
2023-02-22T03:43:38.109Z,100241.34
2023-02-22T03:46:10.364Z,100243.60
2023-02-22T03:49:09.061Z,100245.31
2023-02-22T03:51:39.842Z,100247.81
2023-02-22T03:54:16.528Z,100251.82
2023-02-22T03:56:54.739Z,100250.00
2023-02-22T03:59:27.712Z,100253.98
2023-02-22T04:01:57.980Z,100260.67
2023-02-22T04:04:27.187Z,100263.82
2023-02-22T04:06:55.615Z,100266.96
2023-02-22T04:09:24.803Z,100269.45
2023-02-22T04:11:53.140Z,100272.33
2023-02-22T04:14:23.798Z,100272.44
2023-02-22T04:16:52.393Z,100278.96
2023-02-22T04:19:20.994Z,100278.23
2023-02-22T04:21:50.708Z,100282.85
2023-02-22T04:24:23.438Z,100290.09
2023-02-22T04:26:51.973Z,100295.18
2023-02-22T04:29:21.902Z,100291.52
2023-02-22T04:31:50.563Z,100292.70
2023-02-22T04:34:19.078Z,100286.66
2023-02-22T04:36:47.593Z,100289.42
2023-02-22T04:39:16.637Z,100288.02
2023-02-22T04:41:45.822Z,100293.86
2023-02-22T04:44:15.021Z,100291.11
2023-02-22T04:46:43.490Z,100293.53
2023-02-22T04:49:14.473Z,100292.08
2023-02-22T04:51:44.359Z,100285.35
2023-02-22T04:54:14.411Z,100286.09
2023-02-22T04:56:46.008Z,100288.18
2023-02-22T04:59:14.567Z,100289.80
2023-02-22T05:01:46.244Z,100296.27
2023-02-22T05:04:14.574Z,100304.09
2023-02-22T05:06:43.052Z,100306.46
2023-02-22T05:09:11.416Z,100306.83
2023-02-22T05:11:39.732Z,100305.61
2023-02-22T05:14:08.122Z,100312.48
2023-02-22T05:16:36.867Z,100316.34
2023-02-22T05:19:05.248Z,100322.20
2023-02-22T05:21:33.768Z,100322.34
2023-02-22T05:24:02.336Z,100329.36
2023-02-22T05:26:30.805Z,100330.48
2023-02-22T05:28:59.542Z,100344.11
2023-02-22T05:31:28.122Z,100342.88
2023-02-22T05:33:56.502Z,100346.48
2023-02-22T05:36:25.755Z,100348.39
2023-02-22T05:38:55.208Z,100354.01
2023-02-22T05:41:23.513Z,100356.20
2023-02-22T05:43:51.885Z,100358.74
2023-02-22T05:46:20.284Z,100364.42
2023-02-22T05:48:48.639Z,100365.58
2023-02-22T05:51:17.307Z,100367.05
2023-02-22T05:53:45.845Z,100373.33
2023-02-22T05:56:14.212Z,100378.58
2023-02-22T05:58:42.654Z,100383.69
2023-02-22T06:01:11.035Z,100384.22
2023-02-22T06:03:39.348Z,100382.71
2023-02-22T06:06:07.852Z,100384.30
2023-02-22T06:08:36.262Z,100395.80
2023-02-22T06:11:04.884Z,100399.41
2023-02-22T06:13:33.227Z,100401.89
2023-02-22T06:16:02.004Z,100400.98
2023-02-22T06:18:33.041Z,100401.81
2023-02-22T06:21:01.494Z,100408.84
2023-02-22T06:23:29.933Z,100412.85
2023-02-22T06:25:58.328Z,100413.89
2023-02-22T06:28:26.621Z,100418.38
2023-02-22T06:30:54.946Z,100423.93
2023-02-22T06:33:23.337Z,100428.27
2023-02-22T06:35:51.714Z,100428.38
2023-02-22T06:38:25.281Z,100431.70
2023-02-22T06:40:55.461Z,100430.97
2023-02-22T06:43:27.719Z,100432.74
2023-02-22T06:45:56.245Z,100433.33
2023-02-22T06:48:24.621Z,100440.15
2023-02-22T06:50:53.284Z,100443.91
2023-02-22T06:53:21.623Z,100445.70
2023-02-22T06:55:50.137Z,100443.21
2023-02-22T06:58:18.488Z,100443.13
2023-02-22T07:00:46.884Z,100442.98
2023-02-22T07:03:16.607Z,100441.04
2023-02-22T07:05:45.156Z,100447.13
2023-02-22T07:08:13.739Z,100448.85
2023-02-22T07:10:42.167Z,100450.22
2023-02-22T07:13:10.580Z,100451.59
2023-02-22T07:15:38.887Z,100448.24
2023-02-22T07:18:07.577Z,100450.42
2023-02-22T07:20:36.433Z,100451.58
2023-02-22T07:23:06.360Z,100450.81
2023-02-22T07:25:35.787Z,100455.84
2023-02-22T07:28:04.372Z,100462.00
2023-02-22T07:30:34.428Z,100459.19
2023-02-22T07:33:06.789Z,100467.10
2023-02-22T07:35:50.493Z,100469.41
2023-02-22T07:38:20.417Z,100468.45
2023-02-22T07:40:49.225Z,100472.60
2023-02-22T07:43:21.240Z,100470.80
2023-02-22T07:45:51.706Z,100478.13
2023-02-22T07:48:23.098Z,100482.58
2023-02-22T07:50:51.804Z,100479.26
2023-02-22T07:53:30.904Z,100475.52
2023-02-22T07:56:02.134Z,100475.48
2023-02-22T07:58:32.156Z,100469.98
2023-02-22T08:01:02.435Z,100471.81
2023-02-22T08:03:36.929Z,100475.09
2023-02-22T08:06:08.117Z,100472.80
2023-02-22T08:08:36.634Z,100471.39
2023-02-22T08:11:05.842Z,100470.34
2023-02-22T08:13:34.452Z,100468.09
2023-02-22T08:16:03.723Z,100465.83
2023-02-22T08:18:32.111Z,100466.97
2023-02-22T08:21:00.505Z,100472.83
2023-02-22T08:23:28.913Z,100476.11
2023-02-22T08:25:57.458Z,100480.13
2023-02-22T08:28:25.934Z,100480.10
2023-02-22T08:30:54.341Z,100480.74
2023-02-22T08:33:22.850Z,100478.27
2023-02-22T08:35:51.969Z,100488.42
2023-02-22T08:38:31.601Z,100489.43
2023-02-22T08:41:00.281Z,100492.15
2023-02-22T08:43:28.753Z,100494.60
2023-02-22T08:45:57.926Z,100495.06
2023-02-22T08:48:26.846Z,100491.88
2023-02-22T08:50:56.429Z,100502.23
2023-02-22T08:53:24.858Z,100502.93
2023-02-22T08:55:53.819Z,100501.92
2023-02-22T08:58:22.168Z,100509.05
2023-02-22T09:00:50.587Z,100505.59
2023-02-22T09:03:19.028Z,100515.69
2023-02-22T09:05:47.602Z,100518.70
2023-02-22T09:08:17.672Z,100521.81
2023-02-22T09:10:46.418Z,100519.84
2023-02-22T09:13:15.067Z,100513.25
2023-02-22T09:15:43.413Z,100514.48
2023-02-22T09:18:14.834Z,100514.29
2023-02-22T09:20:43.349Z,100522.52
2023-02-22T09:23:11.653Z,100518.66
2023-02-22T09:25:41.109Z,100525.55
2023-02-22T09:28:09.726Z,100522.95
2023-02-22T09:30:38.717Z,100525.85
2023-02-22T09:33:15.399Z,100526.48
2023-02-22T09:35:49.916Z,100529.73
2023-02-22T09:38:23.194Z,100529.96
2023-02-22T09:41:14.279Z,100528.16
2023-02-22T09:44:07.146Z,100531.14
2023-02-22T09:46:42.208Z,100524.56
2023-02-22T09:49:39.185Z,100522.86
2023-02-22T09:52:24.602Z,100526.33
2023-02-22T09:55:16.992Z,100527.13
2023-02-22T09:57:46.405Z,100531.61
2023-02-22T10:00:18.061Z,100529.27
2023-02-22T10:03:28.507Z,100527.39
2023-02-22T10:06:08.652Z,100527.79
2023-02-22T10:08:39.114Z,100529.53
2023-02-22T10:11:37.739Z,100530.50
2023-02-22T10:14:35.180Z,100535.46
2023-02-22T10:17:19.781Z,100530.48
2023-02-22T10:20:17.741Z,100533.52
2023-02-22T10:22:59.190Z,100536.86
2023-02-22T10:25:35.177Z,100533.95
2023-02-22T10:28:24.462Z,100532.84
2023-02-22T10:31:05.889Z,100536.87
2023-02-22T10:33:42.125Z,100537.90
2023-02-22T10:36:23.966Z,100533.19
2023-02-22T10:39:00.125Z,100534.32
2023-02-22T10:41:36.679Z,100535.17
2023-02-22T10:44:05.205Z,100542.77
2023-02-22T10:46:34.783Z,100536.41
2023-02-22T10:49:09.349Z,100533.75
2023-02-22T10:51:39.477Z,100528.81
2023-02-22T10:54:13.474Z,100527.41
2023-02-22T10:56:55.141Z,100523.63
2023-02-22T10:59:36.923Z,100523.77
2023-02-22T11:02:31.575Z,100517.80
2023-02-22T11:05:01.607Z,100517.77
2023-02-22T11:07:37.465Z,100519.70
2023-02-22T11:10:09.688Z,100517.83
2023-02-22T11:12:42.543Z,100518.85
2023-02-22T11:15:16.932Z,100515.23
2023-02-22T11:17:50.979Z,100509.55
2023-02-22T11:20:28.080Z,100510.44
2023-02-22T11:23:01.271Z,100513.68
2023-02-22T11:25:38.109Z,100509.34
2023-02-22T11:28:31.363Z,100515.29
2023-02-22T11:31:18.016Z,100511.27
2023-02-22T11:33:59.593Z,100506.72
2023-02-22T11:36:40.628Z,100504.83
2023-02-22T11:39:35.545Z,100501.33
2023-02-22T11:42:28.471Z,100503.78
2023-02-22T11:45:20.894Z,100500.45
2023-02-22T11:48:02.685Z,100501.27
2023-02-22T11:50:31.055Z,100503.28
2023-02-22T11:53:34.207Z,100502.81
2023-02-22T11:56:35.721Z,100500.17
2023-02-22T12:00:10.052Z,100495.96
2023-02-22T12:02:57.309Z,100487.61
2023-02-22T12:05:46.513Z,100487.05
2023-02-22T12:08:55.148Z,100493.08
2023-02-22T12:11:31.670Z,100492.84
2023-02-22T12:14:19.330Z,100490.23
2023-02-22T12:20:54.516Z,100489.98
2023-02-22T12:23:33.664Z,100482.08
2023-02-22T12:26:11.713Z,100481.33
2023-02-22T12:28:47.854Z,100480.23
2023-02-22T12:31:26.848Z,100480.37
2023-02-22T12:34:20.283Z,100482.88
2023-02-22T12:37:24.542Z,100482.44
2023-02-22T12:40:02.327Z,100488.84
2023-02-22T12:42:47.460Z,100486.12
2023-02-22T12:45:45.187Z,100484.81
2023-02-22T12:48:32.234Z,100484.38
2023-02-22T12:51:33.406Z,100489.88
2023-02-22T12:54:18.638Z,100495.66
2023-02-22T12:57:12.441Z,100491.85
2023-02-22T12:59:56.357Z,100492.33
2023-02-22T13:02:54.545Z,100492.67
2023-02-22T13:05:23.374Z,100499.31
2023-02-22T13:08:05.958Z,100496.77
2023-02-22T13:10:52.445Z,100494.05
2023-02-22T13:13:55.824Z,100492.75
2023-02-22T13:16:52.938Z,100494.31
2023-02-22T13:19:48.581Z,100491.16
2023-02-22T13:22:41.272Z,100489.78
2023-02-22T13:25:22.213Z,100485.71
2023-02-22T13:27:59.581Z,100485.75
2023-02-22T13:30:42.857Z,100491.34
2023-02-22T13:33:50.151Z,100491.46
2023-02-22T13:36:52.512Z,100491.27
2023-02-22T13:39:46.120Z,100491.27
2023-02-22T13:42:29.506Z,100495.38
2023-02-22T13:45:23.217Z,100498.71
2023-02-22T13:48:19.193Z,100498.88
2023-02-22T13:51:05.067Z,100497.44
2023-02-22T13:54:24.057Z,100498.33
2023-02-22T13:56:56.384Z,100500.80
2023-02-22T13:59:37.272Z,100500.13
2023-02-22T14:02:08.195Z,100498.43
2023-02-22T14:04:42.194Z,100504.71
2023-02-22T14:07:22.756Z,100510.77
2023-02-22T14:09:53.525Z,100512.44
2023-02-22T14:12:31.200Z,100511.23
2023-02-22T14:15:29.784Z,100510.91
2023-02-22T14:18:03.919Z,100511.66
2023-02-22T14:20:36.223Z,100510.86
2023-02-22T14:23:33.848Z,100514.12
2023-02-22T14:26:16.817Z,100513.86
2023-02-22T14:28:52.373Z,100516.41
2023-02-22T14:31:37.996Z,100515.39
2023-02-22T14:34:18.381Z,100515.43
2023-02-22T14:37:08.558Z,100511.69
2023-02-22T14:40:15.653Z,100521.98
2023-02-22T14:43:04.176Z,100523.40
2023-02-22T14:45:46.264Z,100526.58
2023-02-22T14:48:39.645Z,100525.69
2023-02-22T14:51:34.397Z,100532.86
2023-02-22T14:54:09.035Z,100532.27
2023-02-22T14:56:52.954Z,100536.18
2023-02-22T14:59:26.934Z,100534.40
2023-02-22T15:02:13.085Z,100539.48
2023-02-22T15:04:44.190Z,100533.34
2023-02-22T15:07:31.862Z,100535.48
2023-02-22T15:10:46.153Z,100536.64
2023-02-22T15:13:20.224Z,100541.68
2023-02-22T15:15:56.599Z,100547.64
2023-02-22T15:18:48.940Z,100551.78
2023-02-22T15:21:23.834Z,100553.01
2023-02-22T15:24:08.132Z,100558.57
2023-02-22T15:26:59.096Z,100558.84
2023-02-22T15:29:40.031Z,100553.72
2023-02-22T15:32:49.969Z,100561.18
2023-02-22T15:35:30.803Z,100568.88
2023-02-22T15:38:13.358Z,100574.83
2023-02-22T15:40:45.753Z,100571.88
2023-02-22T15:43:25.000Z,100572.31
2023-02-22T15:45:54.305Z,100573.81
2023-02-22T15:48:23.638Z,100573.07
2023-02-22T15:51:12.598Z,100573.31
2023-02-22T15:53:47.657Z,100579.81
2023-02-22T15:56:30.260Z,100587.17
2023-02-22T15:59:12.232Z,100590.41
2023-02-22T16:01:43.794Z,100596.34
2023-02-22T16:04:24.859Z,100603.59
2023-02-22T16:07:17.176Z,100603.06
2023-02-22T16:09:50.490Z,100603.63
2023-02-22T16:12:21.621Z,100602.95
2023-02-22T16:14:52.522Z,100609.24
2023-02-22T16:17:36.043Z,100613.51
2023-02-22T16:20:14.328Z,100618.73
2023-02-22T16:22:49.430Z,100616.35
2023-02-22T16:25:25.099Z,100622.44
2023-02-22T16:28:06.331Z,100621.06
2023-02-22T16:30:40.289Z,100626.98
2023-02-22T16:33:13.959Z,100631.86
2023-02-22T16:35:52.446Z,100632.80
2023-02-22T16:38:21.340Z,100643.39
2023-02-22T16:40:56.014Z,100646.20
2023-02-22T16:43:34.608Z,100645.57
2023-02-22T16:46:04.472Z,100648.84
2023-02-22T16:48:34.083Z,100648.51
2023-02-22T16:51:19.550Z,100644.48
2023-02-22T16:53:49.384Z,100653.61
2023-02-22T16:56:21.512Z,100656.06
2023-02-22T16:58:51.197Z,100656.85
2023-02-22T17:01:20.763Z,100659.41
2023-02-22T17:03:50.900Z,100660.34
2023-02-22T17:06:19.789Z,100662.77
2023-02-22T17:08:52.056Z,100667.18
2023-02-22T17:11:20.968Z,100671.63
2023-02-22T17:13:51.904Z,100671.00
2023-02-22T17:16:20.742Z,100676.95
2023-02-22T17:18:50.018Z,100674.17
2023-02-22T17:21:18.463Z,100677.29
2023-02-22T17:23:47.381Z,100678.45
2023-02-22T17:26:17.431Z,100675.92
2023-02-22T17:28:46.234Z,100673.08
2023-02-22T17:31:24.023Z,100671.75
2023-02-22T17:33:52.790Z,100669.33
2023-02-22T17:36:21.141Z,100673.77
2023-02-22T17:38:50.166Z,100672.30
2023-02-22T17:41:18.568Z,100678.67
2023-02-22T17:43:47.058Z,100678.51
2023-02-22T17:46:16.021Z,100678.92
2023-02-22T17:48:44.613Z,100679.63
2023-02-22T17:51:12.986Z,100686.02
2023-02-22T17:53:41.441Z,100687.70
2023-02-22T17:56:13.566Z,100689.09
2023-02-22T17:58:42.258Z,100689.34
2023-02-22T18:01:25.433Z,100693.77
2023-02-22T18:03:56.487Z,100694.48
2023-02-22T18:06:28.748Z,100700.63
2023-02-22T18:08:59.042Z,100702.63
2023-02-22T18:11:32.580Z,100701.24
2023-02-22T18:14:01.191Z,100702.95
2023-02-22T18:16:29.617Z,100708.41
2023-02-22T18:18:58.047Z,100709.56
2023-02-22T18:21:27.004Z,100713.48
2023-02-22T18:23:55.747Z,100715.58
2023-02-22T18:26:25.896Z,100714.11
2023-02-22T18:28:54.529Z,100720.86
2023-02-22T18:31:23.849Z,100724.57
2023-02-22T18:33:53.094Z,100723.02
2023-02-22T18:36:23.405Z,100721.82
2023-02-22T18:38:54.095Z,100720.83
2023-02-22T18:41:27.355Z,100719.48
2023-02-22T18:43:58.101Z,100723.66
2023-02-22T18:46:26.527Z,100726.30
2023-02-22T18:48:56.375Z,100729.64
2023-02-22T18:51:26.133Z,100736.58
2023-02-22T18:54:00.802Z,100747.86
2023-02-22T18:56:30.369Z,100751.83
2023-02-22T18:59:02.391Z,100754.36
2023-02-22T19:01:35.844Z,100761.02
2023-02-22T19:04:14.864Z,100758.98
2023-02-22T19:06:45.398Z,100759.56
2023-02-22T19:09:14.045Z,100767.28
2023-02-22T19:11:45.215Z,100763.84
2023-02-22T19:14:14.261Z,100764.91
2023-02-22T19:16:46.561Z,100765.18
2023-02-22T19:19:20.916Z,100770.05
2023-02-22T19:21:51.048Z,100769.65
2023-02-22T19:24:19.662Z,100768.28
2023-02-22T19:26:50.907Z,100769.22
2023-02-22T19:29:22.347Z,100769.91
2023-02-22T19:31:52.085Z,100778.38
2023-02-22T19:34:24.035Z,100774.83
2023-02-22T19:36:52.775Z,100775.89
2023-02-22T19:41:58.389Z,100780.95
2023-02-22T19:44:27.850Z,100776.52
2023-02-22T19:46:56.859Z,100773.98
2023-02-22T19:49:27.346Z,100780.19
2023-02-22T19:51:58.263Z,100783.17
2023-02-22T19:54:26.637Z,100789.14
2023-02-22T19:56:57.104Z,100783.52
2023-02-22T19:59:25.452Z,100779.74
2023-02-22T20:01:54.939Z,100786.29
2023-02-22T20:04:23.606Z,100794.90
2023-02-22T20:06:54.814Z,100786.19
2023-02-22T20:09:36.505Z,100785.95
2023-02-22T20:12:05.891Z,100789.39
2023-02-22T20:14:34.339Z,100792.86
2023-02-22T20:17:04.587Z,100793.38
2023-02-22T20:19:32.904Z,100792.02
2023-02-22T20:22:01.223Z,100794.23
2023-02-22T20:24:29.598Z,100796.92
2023-02-22T20:26:58.564Z,100795.95
2023-02-22T20:29:30.180Z,100798.26
2023-02-22T20:32:03.187Z,100799.06
2023-02-22T20:34:36.998Z,100792.43
2023-02-22T20:37:05.454Z,100791.33
2023-02-22T20:39:33.774Z,100794.98
2023-02-22T20:42:04.751Z,100798.98
2023-02-22T20:44:33.108Z,100797.62
2023-02-22T20:47:01.479Z,100799.39
2023-02-22T20:49:29.940Z,100797.69
2023-02-22T20:51:58.457Z,100800.36
2023-02-22T20:54:26.863Z,100805.65
2023-02-22T20:56:55.524Z,100803.06
2023-02-22T20:59:24.032Z,100795.19
2023-02-22T21:01:53.307Z,100794.53
2023-02-22T21:04:25.010Z,100798.13
2023-02-22T21:06:53.328Z,100802.41
2023-02-22T21:09:21.845Z,100795.39
2023-02-22T21:11:50.687Z,100793.73
2023-02-22T21:14:20.105Z,100798.23
2023-02-22T21:16:51.257Z,100797.79
2023-02-22T21:19:26.497Z,100797.20
2023-02-22T21:21:58.130Z,100796.54
2023-02-22T21:24:29.024Z,100800.71
2023-02-22T21:26:59.200Z,100797.38
2023-02-22T21:29:29.431Z,100798.27
2023-02-22T21:31:58.238Z,100797.98
2023-02-22T21:34:26.814Z,100810.45
2023-02-22T21:36:55.135Z,100817.66
2023-02-22T21:39:28.404Z,100812.11
2023-02-22T21:42:01.029Z,100804.98
2023-02-22T21:44:30.036Z,100805.70
2023-02-22T21:46:58.542Z,100811.30
2023-02-22T21:49:26.979Z,100813.53
2023-02-22T21:51:56.624Z,100808.73
2023-02-22T21:54:25.015Z,100800.41
2023-02-22T21:56:54.632Z,100803.79
2023-02-22T21:59:23.983Z,100803.51
2023-02-22T22:01:56.219Z,100798.27
2023-02-22T22:04:31.232Z,100799.58
2023-02-22T22:07:01.682Z,100803.29
2023-02-22T22:09:37.707Z,100799.63
2023-02-22T22:12:06.662Z,100801.00
2023-02-22T22:14:35.893Z,100798.35
2023-02-22T22:17:07.215Z,100801.77
2023-02-22T22:19:41.769Z,100799.70
2023-02-22T22:22:10.664Z,100800.26
2023-02-22T22:24:41.797Z,100800.70
2023-02-22T22:27:12.976Z,100799.58
2023-02-22T22:29:41.445Z,100805.83
2023-02-22T22:32:10.806Z,100801.17
2023-02-22T22:34:39.432Z,100808.54
2023-02-22T22:37:08.779Z,100804.94
2023-02-22T22:39:38.577Z,100807.46
2023-02-22T22:42:09.166Z,100813.43
2023-02-22T22:44:42.272Z,100813.36
2023-02-22T22:47:14.208Z,100810.89
2023-02-22T22:49:42.896Z,100820.34
2023-02-22T22:52:14.138Z,100823.20
2023-02-22T22:54:43.863Z,100828.34
2023-02-22T22:57:12.278Z,100827.92
2023-02-22T22:59:40.622Z,100834.02
2023-02-22T23:02:11.629Z,100842.79
2023-02-22T23:04:40.100Z,100838.84
2023-02-22T23:07:08.641Z,100835.56
2023-02-22T23:09:39.504Z,100837.94
2023-02-22T23:12:17.021Z,100843.69
2023-02-22T23:14:45.945Z,100847.30
2023-02-22T23:17:30.959Z,100841.65
2023-02-22T23:19:59.599Z,100841.90
2023-02-22T23:22:28.067Z,100845.17
2023-02-22T23:24:58.049Z,100840.77
2023-02-22T23:27:26.410Z,100849.36
2023-02-22T23:29:54.802Z,100848.90
2023-02-22T23:32:23.176Z,100848.77
2023-02-22T23:34:51.492Z,100849.86
2023-02-22T23:37:20.889Z,100854.00
2023-02-22T23:39:51.027Z,100854.69
2023-02-22T23:42:19.535Z,100858.80
2023-02-22T23:44:48.340Z,100857.75
2023-02-22T23:47:16.974Z,100858.13
2023-02-22T23:49:49.646Z,100856.16
2023-02-22T23:52:24.402Z,100857.90
2023-02-22T23:54:54.198Z,100862.50
2023-02-22T23:57:24.211Z,100856.57
2023-02-22T23:59:52.539Z,100864.64
